Time;durP1;ratioP1;P1;durP2;ratioP2;P2;SDS_P1;SDS_P2;PMS_P1;PMS_P2;Temp;Humidity;BMP_temperature;BMP_pressure;BME280_temperature;BME280_humidity;BME280_pressure;Samples;Min_cycle;Max_cycle;Signal;HPM_P1;HPM_P2
2023/06/25 00:01:56;;;;;;;2.20;1.30;;;23.90;59.00;;;;;;5135501;27;20051;-69
2023/06/25 00:04:22;;;;;;;1.17;1.00;;;23.80;59.40;;;;;;5138321;27;20047;-69
2023/06/25 00:06:48;;;;;;;1.35;0.88;;;23.80;59.40;;;;;;5139276;27;20438;-69
2023/06/25 00:09:14;;;;;;;1.95;1.20;;;23.70;59.60;;;;;;5139381;27;20094;-69
2023/06/25 00:11:40;;;;;;;2.03;1.33;;;23.70;59.60;;;;;;5139434;27;20490;-69
2023/06/25 00:14:06;;;;;;;1.73;1.35;;;23.70;59.80;;;;;;5139512;27;20016;-69
2023/06/25 00:16:33;;;;;;;1.17;0.90;;;23.60;59.90;;;;;;5138385;27;20034;-69
2023/06/25 00:19:00;;;;;;;2.28;1.15;;;23.60;59.90;;;;;;5139045;27;20427;-69
2023/06/25 00:21:27;;;;;;;2.55;1.00;;;23.50;59.90;;;;;;5135808;27;20015;-69
2023/06/25 00:23:52;;;;;;;2.75;1.30;;;23.50;60.10;;;;;;5137343;27;20019;-69
2023/06/25 00:26:18;;;;;;;1.23;0.88;;;23.40;60.40;;;;;;5138090;27;20075;-68
2023/06/25 00:28:44;;;;;;;0.90;0.80;;;23.40;60.70;;;;;;5138957;27;20092;-68
2023/06/25 00:31:12;;;;;;;2.75;1.25;;;23.30;60.80;;;;;;5138936;27;20026;-69
2023/06/25 00:33:41;;;;;;;1.85;0.93;;;23.30;60.90;;;;;;5138651;27;20352;-69
2023/06/25 00:36:07;;;;;;;2.35;1.05;;;23.20;60.90;;;;;;5139184;27;20069;-69
2023/06/25 00:38:38;;;;;;;1.38;1.17;;;23.20;61.00;;;;;;5138881;27;20027;-69
2023/06/25 00:41:09;;;;;;;3.20;1.65;;;23.10;61.10;;;;;;5138858;27;20119;-69
2023/06/25 00:43:40;;;;;;;3.40;1.30;;;23.10;61.20;;;;;;5139351;27;20027;-69
2023/06/25 00:46:12;;;;;;;2.47;1.20;;;23.00;61.70;;;;;;5138813;27;20015;-70
2023/06/25 00:48:45;;;;;;;2.80;1.20;;;22.90;61.80;;;;;;5138974;27;20016;-69
2023/06/25 00:51:15;;;;;;;3.13;1.23;;;22.90;61.80;;;;;;5137271;27;20041;-68
2023/06/25 00:53:41;;;;;;;3.83;1.30;;;22.90;61.70;;;;;;5139174;27;20023;-70
2023/06/25 00:56:07;;;;;;;3.35;1.27;;;22.90;61.90;;;;;;5138563;27;20087;-69
2023/06/25 00:58:38;;;;;;;2.08;1.27;;;22.80;62.00;;;;;;5138253;27;20070;-71
2023/06/25 01:01:15;;;;;;;3.53;1.20;;;22.80;62.20;;;;;;5122861;27;20471;-70
2023/06/25 01:03:46;;;;;;;2.90;1.20;;;22.70;62.30;;;;;;5117847;28;20088;-70
2023/06/25 01:06:15;;;;;;;1.20;1.10;;;22.70;62.50;;;;;;5118331;28;20031;-70
2023/06/25 01:08:49;;;;;;;1.60;1.20;;;22.70;62.80;;;;;;5117514;27;20377;-69
2023/06/25 01:11:16;;;;;;;2.40;1.10;;;22.60;62.90;;;;;;5117636;28;20331;-70
2023/06/25 01:13:43;;;;;;;1.98;1.30;;;22.60;63.20;;;;;;5118171;28;20083;-70
2023/06/25 01:16:09;;;;;;;1.15;1.05;;;22.50;63.40;;;;;;5116020;28;20059;-69
2023/06/25 01:18:39;;;;;;;3.08;1.55;;;22.50;63.60;;;;;;5117421;28;20020;-70
2023/06/25 01:21:07;;;;;;;2.00;1.42;;;22.40;63.80;;;;;;5117355;28;20035;-69
2023/06/25 01:23:35;;;;;;;1.77;1.00;;;22.40;63.70;;;;;;5117985;28;20046;-69
2023/06/25 01:26:02;;;;;;;3.42;1.50;;;22.40;63.80;;;;;;5115914;28;20024;-70
2023/06/25 01:28:27;;;;;;;2.60;1.30;;;22.30;63.90;;;;;;5115231;28;20035;-70
2023/06/25 01:30:54;;;;;;;1.27;1.00;;;22.30;64.00;;;;;;5115221;28;20028;-69
2023/06/25 01:33:20;;;;;;;2.55;1.40;;;22.30;64.00;;;;;;5115203;27;20445;-70
2023/06/25 01:35:46;;;;;;;2.28;1.52;;;22.30;64.30;;;;;;5113697;28;20358;-70
2023/06/25 01:38:12;;;;;;;2.42;1.13;;;22.20;64.50;;;;;;5114255;28;20040;-70
2023/06/25 01:40:38;;;;;;;1.40;1.30;;;22.20;64.30;;;;;;5115018;28;20038;-70
2023/06/25 01:43:04;;;;;;;2.05;1.60;;;22.10;64.30;;;;;;5116998;28;20024;-70
2023/06/25 01:45:30;;;;;;;3.97;1.38;;;22.10;64.50;;;;;;5117057;28;20045;-70
2023/06/25 01:47:58;;;;;;;1.48;1.38;;;22.00;64.60;;;;;;5116942;28;20011;-70
2023/06/25 01:50:24;;;;;;;1.90;1.15;;;21.90;64.60;;;;;;5117225;28;20441;-70
2023/06/25 01:52:50;;;;;;;3.08;1.38;;;22.00;64.70;;;;;;5117131;28;20387;-70
2023/06/25 01:55:16;;;;;;;1.23;1.13;;;21.90;64.80;;;;;;5117349;28;20106;-69
2023/06/25 01:57:42;;;;;;;3.42;1.30;;;21.90;64.80;;;;;;5123971;28;20027;-70
2023/06/25 02:00:11;;;;;;;1.65;1.05;;;21.80;65.10;;;;;;5124162;28;20058;-70
2023/06/25 02:02:37;;;;;;;1.77;1.35;;;21.70;65.20;;;;;;5116640;28;20028;-70
2023/06/25 02:05:04;;;;;;;2.38;1.45;;;21.60;65.30;;;;;;5115614;28;20413;-70
2023/06/25 02:07:30;;;;;;;1.83;1.30;;;21.50;65.30;;;;;;5117108;28;20026;-70
2023/06/25 02:09:56;;;;;;;1.67;1.20;;;21.50;65.40;;;;;;5117014;27;20089;-70
2023/06/25 02:12:22;;;;;;;2.05;1.10;;;21.50;65.50;;;;;;5116473;28;20432;-70
2023/06/25 02:14:48;;;;;;;4.65;1.60;;;21.40;65.40;;;;;;5116446;28;20094;-70
2023/06/25 02:17:14;;;;;;;1.80;1.15;;;21.40;65.40;;;;;;5115361;28;20030;-70
2023/06/25 02:19:40;;;;;;;2.47;1.08;;;21.40;65.30;;;;;;5116204;28;20023;-70
2023/06/25 02:22:06;;;;;;;1.35;1.20;;;21.40;65.40;;;;;;5116558;28;20015;-70
2023/06/25 02:24:32;;;;;;;1.30;1.20;;;21.40;65.40;;;;;;5116318;28;20113;-70
2023/06/25 02:26:58;;;;;;;2.67;1.35;;;21.40;65.30;;;;;;5115913;28;20111;-70
2023/06/25 02:29:24;;;;;;;1.45;1.08;;;21.40;65.30;;;;;;5116203;28;20028;-70
2023/06/25 02:31:50;;;;;;;1.30;1.20;;;21.40;65.30;;;;;;5116474;28;20020;-70
2023/06/25 02:34:17;;;;;;;2.03;1.08;;;21.40;65.30;;;;;;5116400;28;20024;-70
2023/06/25 02:36:43;;;;;;;2.45;1.23;;;21.40;65.30;;;;;;5116610;28;20448;-70
2023/06/25 02:39:09;;;;;;;1.95;1.23;;;21.40;65.50;;;;;;5115900;28;20016;-70
2023/06/25 02:41:36;;;;;;;1.92;1.10;;;21.30;65.60;;;;;;5116560;28;20390;-70
2023/06/25 02:44:02;;;;;;;1.83;1.30;;;21.30;65.70;;;;;;5116222;28;20498;-70
2023/06/25 02:46:28;;;;;;;2.63;1.73;;;21.30;65.90;;;;;;5115925;28;20024;-70
2023/06/25 02:48:54;;;;;;;1.52;1.20;;;21.20;65.90;;;;;;5116054;28;20069;-70
2023/06/25 02:51:20;;;;;;;1.73;1.33;;;21.20;65.90;;;;;;5116434;28;20080;-70
2023/06/25 02:53:46;;;;;;;2.83;1.33;;;21.20;65.90;;;;;;5116095;28;20062;-70
2023/06/25 02:56:12;;;;;;;4.00;1.35;;;21.20;66.00;;;;;;5115831;28;20052;-70
2023/06/25 03:01:04;;;;;;;1.17;1.08;;;21.10;66.40;;;;;;5116252;28;20476;-70
2023/06/25 03:03:30;;;;;;;1.67;1.10;;;21.00;66.40;;;;;;5116225;28;20023;-70
2023/06/25 03:05:56;;;;;;;3.00;1.25;;;21.00;66.50;;;;;;5115670;28;20353;-70
2023/06/25 03:08:22;;;;;;;1.83;1.02;;;20.90;66.60;;;;;;5115575;28;20085;-70
2023/06/25 03:10:48;;;;;;;1.10;0.98;;;20.90;66.70;;;;;;5116172;28;20019;-70
2023/06/25 03:13:14;;;;;;;2.47;1.02;;;20.90;66.80;;;;;;5115553;28;20031;-70
2023/06/25 03:15:40;;;;;;;2.70;1.10;;;20.90;67.00;;;;;;5116070;28;20035;-70
2023/06/25 03:18:06;;;;;;;2.70;1.33;;;20.90;66.90;;;;;;5115727;28;20031;-70
2023/06/25 03:20:32;;;;;;;3.40;1.42;;;20.90;66.90;;;;;;5115493;28;20410;-70
2023/06/25 03:22:58;;;;;;;3.88;1.20;;;20.80;67.10;;;;;;5115540;28;20031;-70
2023/06/25 03:25:24;;;;;;;3.58;1.90;;;20.80;67.20;;;;;;5114866;28;20057;-70
2023/06/25 03:27:50;;;;;;;1.30;0.98;;;20.80;67.20;;;;;;5116039;28;20051;-70
2023/06/25 03:30:16;;;;;;;1.38;1.27;;;20.80;67.20;;;;;;5115619;28;20028;-70
2023/06/25 03:32:42;;;;;;;1.77;1.27;;;20.70;67.30;;;;;;5115940;28;20419;-70
2023/06/25 03:35:18;;;;;;;2.30;1.15;;;20.70;67.30;;;;;;5115420;28;20027;-69
2023/06/25 03:37:44;;;;;;;1.35;1.20;;;20.70;67.40;;;;;;5115983;28;20081;-70
2023/06/25 03:40:11;;;;;;;1.88;1.10;;;20.70;67.20;;;;;;5119852;28;20028;-70
2023/06/25 03:42:37;;;;;;;1.98;1.05;;;20.70;67.20;;;;;;5119935;28;20073;-70
2023/06/25 03:45:03;;;;;;;1.45;1.20;;;20.70;67.10;;;;;;5119418;28;20019;-70
2023/06/25 03:47:30;;;;;;;1.55;1.30;;;20.70;67.10;;;;;;5119304;28;20020;-69
2023/06/25 03:49:56;;;;;;;2.63;1.23;;;20.70;67.00;;;;;;5119459;28;20023;-69
2023/06/25 03:52:22;;;;;;;1.50;1.00;;;20.70;67.00;;;;;;5119527;28;20023;-69
2023/06/25 03:54:47;;;;;;;2.03;1.20;;;20.80;67.20;;;;;;5119430;28;20452;-69
2023/06/25 03:57:14;;;;;;;1.73;1.10;;;20.80;67.10;;;;;;5119105;27;20484;-69
2023/06/25 03:59:40;;;;;;;1.85;0.98;;;20.80;67.40;;;;;;5118735;28;20096;-69
2023/06/25 04:02:07;;;;;;;2.75;1.08;;;20.80;67.20;;;;;;5119557;28;20019;-69
2023/06/25 04:04:33;;;;;;;1.33;0.70;;;20.90;67.10;;;;;;5118931;27;20031;-69
2023/06/25 04:06:59;;;;;;;2.22;1.30;;;20.90;67.10;;;;;;5119233;27;20020;-69
2023/06/25 04:09:25;;;;;;;2.30;1.40;;;20.90;67.10;;;;;;5119051;28;20065;-69
2023/06/25 04:11:51;;;;;;;1.67;0.98;;;20.90;67.10;;;;;;5118892;28;20028;-70
2023/06/25 04:14:17;;;;;;;1.52;0.93;;;20.90;67.00;;;;;;5118901;28;20106;-69
2023/06/25 04:16:43;;;;;;;1.23;0.95;;;20.90;66.80;;;;;;5119286;28;20379;-69
2023/06/25 04:19:10;;;;;;;0.98;0.90;;;21.00;66.60;;;;;;5118627;28;20024;-70
2023/06/25 04:21:36;;;;;;;1.65;1.00;;;21.10;66.50;;;;;;5118945;28;20094;-69
2023/06/25 04:24:03;;;;;;;2.70;1.20;;;21.30;66.30;;;;;;5118898;28;20097;-69
2023/06/25 04:26:29;;;;;;;2.13;1.10;;;21.40;66.00;;;;;;5118634;28;20055;-69
2023/06/25 04:28:55;;;;;;;0.93;0.90;;;21.50;65.90;;;;;;5118540;28;20488;-70
2023/06/25 04:31:23;;;;;;;1.98;1.23;;;21.60;65.70;;;;;;5119003;28;20059;-69
2023/06/25 04:33:49;;;;;;;3.45;1.40;;;21.80;65.30;;;;;;5118695;28;20027;-69
2023/06/25 04:36:16;;;;;;;2.38;1.05;;;21.90;65.00;;;;;;5118952;28;20031;-70
2023/06/25 04:38:41;;;;;;;1.77;1.20;;;22.20;64.60;;;;;;5118311;28;20027;-70
2023/06/25 04:41:07;;;;;;;2.55;1.33;;;22.40;64.30;;;;;;5118529;28;20027;-69
2023/06/25 04:43:33;;;;;;;1.02;0.70;;;22.60;64.10;;;;;;5118261;28;20448;-69
2023/06/25 04:46:00;;;;;;;2.25;1.20;;;22.80;63.80;;;;;;5118229;28;20039;-69
2023/06/25 04:48:26;;;;;;;1.23;0.90;;;23.00;63.50;;;;;;5118389;28;20020;-69
2023/06/25 04:50:52;;;;;;;1.58;1.10;;;23.30;63.20;;;;;;5117127;28;20039;-69
2023/06/25 04:53:18;;;;;;;2.03;1.00;;;23.70;63.20;;;;;;5118138;28;20502;-70
2023/06/25 04:55:44;;;;;;;2.72;1.10;;;24.40;62.80;;;;;;5118004;28;20028;-70
2023/06/25 04:58:10;;;;;;;1.95;1.05;;;25.50;61.20;;;;;;5117648;28;20026;-70
2023/06/25 05:00:36;;;;;;;2.92;1.40;;;26.80;59.10;;;;;;5118464;28;20103;-70
2023/06/25 05:03:02;;;;;;;2.75;1.20;;;28.00;56.80;;;;;;5117895;28;20020;-69
2023/06/25 05:05:28;;;;;;;81.57;15.38;;;29.20;54.40;;;;;;5118391;28;20028;-70
2023/06/25 05:07:54;;;;;;;18.38;6.25;;;30.30;52.20;;;;;;5118291;28;20016;-70
2023/06/25 05:10:21;;;;;;;13.10;3.90;;;31.30;49.90;;;;;;5116708;28;20111;-70
2023/06/25 05:12:48;;;;;;;9.77;3.10;;;32.10;48.00;;;;;;5117643;28;20119;-70
2023/06/25 05:15:14;;;;;;;4.90;1.92;;;32.90;46.30;;;;;;5117615;28;20067;-70
2023/06/25 05:17:41;;;;;;;5.28;1.92;;;33.70;44.70;;;;;;5118441;27;20533;-70
2023/06/25 05:20:07;;;;;;;3.58;1.45;;;34.40;43.30;;;;;;5117611;28;20378;-70
2023/06/25 05:22:33;;;;;;;2.90;1.40;;;35.00;42.40;;;;;;5117473;28;20388;-70
2023/06/25 05:24:59;;;;;;;2.58;1.40;;;35.60;41.40;;;;;;5117692;27;20016;-71
2023/06/25 05:27:25;;;;;;;1.75;1.40;;;36.20;40.40;;;;;;5116336;28;20035;-70
2023/06/25 05:29:51;;;;;;;2.58;1.50;;;36.70;38.90;;;;;;5123665;27;20023;-71
2023/06/25 05:32:18;;;;;;;2.15;1.10;;;37.30;38.20;;;;;;5137781;27;20145;-69
2023/06/25 05:34:44;;;;;;;2.70;1.13;;;37.90;37.90;;;;;;5137448;27;20105;-69
2023/06/25 05:37:10;;;;;;;2.38;1.23;;;38.40;36.90;;;;;;5137708;27;20023;-69
2023/06/25 05:39:35;;;;;;;3.08;1.27;;;38.90;36.10;;;;;;5137392;27;20398;-69
2023/06/25 05:42:01;;;;;;;2.10;1.20;;;39.30;34.60;;;;;;5137394;27;20033;-69
2023/06/25 05:44:27;;;;;;;1.25;1.15;;;39.70;33.90;;;;;;5136602;27;20141;-69
2023/06/25 05:46:54;;;;;;;3.80;1.30;;;40.20;33.70;;;;;;5137499;27;20457;-69
2023/06/25 05:49:20;;;;;;;1.35;0.90;;;40.70;33.00;;;;;;5137359;27;20051;-68
2023/06/25 05:51:46;;;;;;;2.70;1.73;;;41.20;32.40;;;;;;5123247;27;20063;-67
2023/06/25 05:54:12;;;;;;;2.50;1.27;;;41.80;31.30;;;;;;5116799;28;20042;-68
2023/06/25 05:56:38;;;;;;;3.88;1.63;;;42.20;30.70;;;;;;5124100;27;20050;-66
2023/06/25 05:59:04;;;;;;;2.60;1.50;;;42.70;29.90;;;;;;5136971;27;20054;-67
2023/06/25 06:01:30;;;;;;;1.95;1.40;;;43.10;29.60;;;;;;5136975;27;20471;-70
2023/06/25 06:03:56;;;;;;;2.13;1.20;;;43.50;28.70;;;;;;5137164;27;20051;-71
2023/06/25 06:06:23;;;;;;;1.73;1.20;;;44.00;28.20;;;;;;5137361;27;20020;-69
2023/06/25 06:08:50;;;;;;;1.25;1.15;;;44.40;27.40;;;;;;5136941;27;20023;-71
2023/06/25 06:11:16;;;;;;;2.47;1.20;;;44.80;27.10;;;;;;5124204;27;20486;-71
2023/06/25 06:13:43;;;;;;;3.55;1.02;;;45.30;26.90;;;;;;5116358;28;20104;-70
2023/06/25 06:16:09;;;;;;;2.95;1.30;;;45.70;26.40;;;;;;5115237;28;20088;-71
2023/06/25 06:18:36;;;;;;;4.55;1.48;;;46.10;25.70;;;;;;5116131;28;20028;-70
2023/06/25 06:21:02;;;;;;;2.42;1.20;;;46.50;25.50;;;;;;5123764;27;20178;-68
2023/06/25 06:23:27;;;;;;;1.10;1.00;;;46.90;25.40;;;;;;5136884;27;20204;-70
2023/06/25 06:25:53;;;;;;;2.65;1.30;;;47.20;24.70;;;;;;5137160;27;20433;-73
2023/06/25 06:28:19;;;;;;;1.67;1.10;;;47.50;24.50;;;;;;5132672;27;20454;-69
2023/06/25 06:30:45;;;;;;;1.65;1.10;;;47.90;24.10;;;;;;5118825;27;20024;-69
2023/06/25 06:33:11;;;;;;;2.10;1.10;;;48.30;23.80;;;;;;5118644;27;20023;-69
2023/06/25 06:35:37;;;;;;;2.17;1.15;;;48.70;23.00;;;;;;5135070;27;20024;-71
2023/06/25 06:38:03;;;;;;;1.30;1.20;;;48.80;22.50;;;;;;5134708;27;20106;-70
2023/06/25 06:40:29;;;;;;;1.20;1.10;;;48.70;22.60;;;;;;5135081;27;20068;-68
2023/06/25 06:42:55;;;;;;;3.13;1.60;;;47.90;23.00;;;;;;5135494;27;20357;-69
2023/06/25 06:45:21;;;;;;;2.22;1.00;;;46.70;23.80;;;;;;5135464;27;20019;-72
2023/06/25 06:47:47;;;;;;;3.83;1.40;;;45.30;24.60;;;;;;5133687;27;20511;-69
2023/06/25 06:50:12;;;;;;;1.30;1.08;;;43.90;25.70;;;;;;5132282;27;20031;-70
2023/06/25 06:52:41;;;;;;;1.92;1.48;;;42.50;26.80;;;;;;5136470;27;20042;-69
2023/06/25 06:55:07;;;;;;;2.67;1.30;;;41.30;28.10;;;;;;5136459;27;20137;-72
2023/06/25 06:57:36;;;;;;;3.33;1.58;;;40.20;29.40;;;;;;5134926;27;20434;-68
2023/06/25 07:00:03;;;;;;;3.35;1.50;;;39.40;30.50;;;;;;5135741;27;20468;-68
2023/06/25 07:02:29;;;;;;;1.60;1.10;;;38.70;31.50;;;;;;5136125;27;20023;-69
2023/06/25 07:04:55;;;;;;;3.50;1.33;;;38.10;32.30;;;;;;5135623;27;20031;-69
2023/06/25 07:07:21;;;;;;;2.00;1.27;;;37.60;33.00;;;;;;5136110;27;20451;-68
2023/06/25 07:09:51;;;;;;;2.42;1.42;;;37.20;33.60;;;;;;5135796;27;20160;-70
2023/06/25 07:12:18;;;;;;;1.83;1.40;;;36.70;33.90;;;;;;5135580;27;20023;-68
2023/06/25 07:14:44;;;;;;;2.25;1.70;;;36.40;34.30;;;;;;5130110;28;20444;-69
2023/06/25 07:17:10;;;;;;;2.65;1.60;;;36.10;34.10;;;;;;5121895;28;20028;-69
2023/06/25 07:19:37;;;;;;;2.15;1.92;;;35.70;34.10;;;;;;5113966;28;20110;-68
2023/06/25 07:22:11;;;;;;;2.03;1.60;;;35.40;34.30;;;;;;5115357;28;20076;-70
2023/06/25 07:24:37;;;;;;;3.28;1.70;;;35.20;34.30;;;;;;5113038;28;20103;-70
2023/06/25 07:27:03;;;;;;;3.28;1.85;;;34.90;34.50;;;;;;5112514;28;20099;-70
2023/06/25 07:29:30;;;;;;;1.75;1.60;;;34.80;34.90;;;;;;5117743;28;20016;-69
2023/06/25 07:32:00;;;;;;;1.70;1.40;;;34.60;35.10;;;;;;5116873;28;20050;-68
2023/06/25 07:34:29;;;;;;;2.00;1.63;;;34.40;35.30;;;;;;5116973;28;20093;-68
2023/06/25 07:36:58;;;;;;;2.25;1.90;;;34.40;35.70;;;;;;5115059;28;20042;-68
2023/06/25 07:39:33;;;;;;;5.05;1.88;;;34.40;35.70;;;;;;5115188;28;20024;-68
2023/06/25 07:42:01;;;;;;;2.25;1.80;;;34.30;35.80;;;;;;5126723;28;20026;-68
2023/06/25 07:44:29;;;;;;;2.50;2.03;;;34.20;36.00;;;;;;5135814;27;20027;-68
2023/06/25 07:46:58;;;;;;;2.03;1.83;;;34.20;35.60;;;;;;5136335;27;20015;-69
2023/06/25 07:49:26;;;;;;;2.58;2.20;;;34.10;35.20;;;;;;5135742;28;20031;-68
2023/06/25 07:51:55;;;;;;;2.33;2.10;;;33.90;34.80;;;;;;5136351;27;20440;-67
2023/06/25 07:54:25;;;;;;;2.20;2.00;;;33.70;34.90;;;;;;5135533;27;20102;-66
2023/06/25 07:56:53;;;;;;;3.25;2.10;;;33.60;35.10;;;;;;5129563;27;20103;-66
2023/06/25 07:59:20;;;;;;;3.88;2.20;;;33.50;35.10;;;;;;5114769;28;20043;-66
2023/06/25 08:01:48;;;;;;;4.40;2.17;;;33.40;35.00;;;;;;5115081;28;20019;-66
2023/06/25 08:04:15;;;;;;;2.38;2.17;;;33.40;35.00;;;;;;5114881;28;20456;-66
2023/06/25 08:06:41;;;;;;;2.85;2.20;;;33.30;35.10;;;;;;5114924;28;20471;-68
2023/06/25 08:09:07;;;;;;;2.70;2.20;;;33.20;35.00;;;;;;5114882;28;20023;-70
2023/06/25 08:11:37;;;;;;;3.35;2.00;;;33.10;35.10;;;;;;5113374;28;20028;-67
2023/06/25 08:14:03;;;;;;;2.70;1.90;;;33.00;35.10;;;;;;5113842;28;20030;-68
2023/06/25 08:16:29;;;;;;;3.05;1.98;;;33.00;35.30;;;;;;5115086;28;20107;-68
2023/06/25 08:18:56;;;;;;;4.50;2.30;;;33.00;35.50;;;;;;5113474;28;20048;-68
2023/06/25 08:21:24;;;;;;;2.63;2.00;;;33.00;35.40;;;;;;5114547;28;20148;-68
2023/06/25 08:23:50;;;;;;;3.38;2.00;;;33.00;35.50;;;;;;5114659;28;20023;-67
2023/06/25 08:26:15;;;;;;;2.63;1.92;;;33.00;35.70;;;;;;5117320;28;20016;-68
2023/06/25 08:28:42;;;;;;;2.88;2.45;;;32.90;35.90;;;;;;5118255;28;20024;-67
2023/06/25 08:31:10;;;;;;;2.10;1.90;;;32.90;35.80;;;;;;5118077;28;20020;-67
2023/06/25 08:33:37;;;;;;;2.50;2.20;;;32.90;35.70;;;;;;5117169;28;20330;-70
2023/06/25 08:36:03;;;;;;;2.83;2.25;;;32.80;35.80;;;;;;5114446;28;20028;-70
2023/06/25 08:38:30;;;;;;;2.33;2.10;;;32.80;35.80;;;;;;5119516;27;20030;-70
2023/06/25 08:40:56;;;;;;;4.20;2.45;;;32.70;35.80;;;;;;5138619;27;20019;-68
2023/06/25 08:43:22;;;;;;;2.42;2.20;;;32.70;35.50;;;;;;5138541;27;20099;-68
2023/06/25 08:45:48;;;;;;;2.20;2.00;;;32.50;35.60;;;;;;5138632;27;20445;-69
2023/06/25 08:48:15;;;;;;;3.28;2.13;;;32.50;35.70;;;;;;5138417;27;20027;-69
2023/06/25 08:50:43;;;;;;;2.50;2.30;;;32.50;35.80;;;;;;5137770;27;20037;-68
2023/06/25 08:53:09;;;;;;;2.50;2.05;;;32.50;35.70;;;;;;5137849;27;20023;-68
2023/06/25 08:55:38;;;;;;;2.58;2.30;;;32.50;35.80;;;;;;5138225;27;20026;-69
2023/06/25 08:58:04;;;;;;;2.63;2.13;;;32.50;35.70;;;;;;5138023;27;20028;-68
2023/06/25 09:00:30;;;;;;;3.33;2.20;;;32.40;35.70;;;;;;5123344;27;20030;-68
2023/06/25 09:03:07;;;;;;;3.00;2.00;;;32.40;35.70;;;;;;5117543;28;20038;-68
2023/06/25 09:05:38;;;;;;;3.00;2.00;;;32.40;35.80;;;;;;5118187;28;20098;-68
2023/06/25 09:08:04;;;;;;;1.92;1.83;;;32.50;36.10;;;;;;5117312;28;20024;-69
2023/06/25 09:10:31;;;;;;;2.08;1.88;;;32.50;36.20;;;;;;5116614;28;20059;-69
2023/06/25 09:13:01;;;;;;;2.85;2.08;;;32.60;36.20;;;;;;5117522;28;20031;-69
2023/06/25 09:15:28;;;;;;;2.63;2.00;;;32.80;36.30;;;;;;5117464;28;20027;-68
2023/06/25 09:17:55;;;;;;;4.28;2.17;;;32.80;36.20;;;;;;5117431;28;20357;-69
2023/06/25 09:20:22;;;;;;;3.75;2.10;;;32.70;36.20;;;;;;5116239;28;20533;-69
2023/06/25 09:22:58;;;;;;;2.72;2.17;;;32.60;36.20;;;;;;5115775;28;20069;-69
2023/06/25 09:25:31;;;;;;;3.13;2.28;;;32.60;36.20;;;;;;5117007;28;20019;-69
2023/06/25 09:28:01;;;;;;;;;;;32.60;36.40;;;;;;5117553;28;20024;-68
2023/06/25 09:30:30;;;;;;;3.47;2.38;;;32.40;36.70;;;;;;5117367;28;19900;-68
2023/06/25 09:33:00;;;;;;;3.08;2.38;;;32.40;37.10;;;;;;5117795;28;20023;-68
2023/06/25 09:35:31;;;;;;;4.22;2.50;;;32.30;37.30;;;;;;5127723;27;20027;-69
2023/06/25 09:37:57;;;;;;;2.42;2.15;;;32.30;37.40;;;;;;5124801;27;20023;-67
2023/06/25 09:40:27;;;;;;;3.25;2.30;;;32.20;37.50;;;;;;5135630;27;20023;-66
2023/06/25 09:42:56;;;;;;;2.50;1.90;;;32.20;37.60;;;;;;5136113;27;20023;-68
2023/06/25 09:45:24;;;;;;;2.50;2.10;;;32.20;37.60;;;;;;5136024;27;20043;-68
2023/06/25 09:47:51;;;;;;;3.10;2.42;;;32.30;37.90;;;;;;5137371;27;20030;-67
2023/06/25 09:50:25;;;;;;;3.78;2.50;;;32.30;37.80;;;;;;5131539;27;20034;-68
2023/06/25 09:52:55;;;;;;;3.28;2.22;;;32.20;38.10;;;;;;5116569;28;20030;-67
2023/06/25 09:55:22;;;;;;;6.25;2.40;;;32.20;38.00;;;;;;5116606;28;20205;-68
2023/06/25 09:57:52;;;;;;;4.03;2.38;;;32.30;38.20;;;;;;5116854;28;20047;-70
2023/06/25 10:00:20;;;;;;;2.38;2.00;;;32.30;37.90;;;;;;5114851;28;20127;-69
2023/06/25 10:02:46;;;;;;;3.13;2.20;;;32.20;37.80;;;;;;5116525;28;20091;-70
2023/06/25 10:05:12;;;;;;;5.15;4.30;;;32.20;37.70;;;;;;5116258;28;20050;-69
2023/06/25 10:07:39;;;;;;;3.80;3.17;;;32.20;37.60;;;;;;5115520;28;20338;-69
2023/06/25 10:10:06;;;;;;;4.22;2.60;;;32.20;37.70;;;;;;5116050;28;20111;-69
2023/06/25 10:12:35;;;;;;;4.20;2.40;;;32.30;37.80;;;;;;5118977;27;20023;-69
2023/06/25 10:15:03;;;;;;;2.83;2.28;;;32.40;37.70;;;;;;5115244;28;20467;-70
2023/06/25 10:17:29;;;;;;;5.95;2.60;;;32.40;37.60;;;;;;5115288;28;20028;-68
2023/06/25 10:20:00;;;;;;;2.10;1.90;;;32.30;37.20;;;;;;5116040;28;20102;-69
2023/06/25 10:22:28;;;;;;;2.45;2.25;;;32.00;37.40;;;;;;5115618;28;20392;-68
2023/06/25 10:24:55;;;;;;;3.33;2.08;;;31.90;37.70;;;;;;5115501;28;20361;-68
2023/06/25 10:27:23;;;;;;;3.92;2.60;;;31.90;37.70;;;;;;5115374;28;20330;-69
2023/06/25 10:29:51;;;;;;;3.55;2.30;;;31.80;37.70;;;;;;5115969;28;20032;-70
2023/06/25 10:32:25;;;;;;;3.63;2.30;;;31.60;37.70;;;;;;5127762;27;20050;-71
2023/06/25 10:35:02;;;;;;;3.40;2.50;;;31.50;37.70;;;;;;5136259;27;20031;-70
2023/06/25 10:37:33;;;;;;;2.30;2.08;;;31.40;38.00;;;;;;5132397;27;20031;-69
2023/06/25 10:40:03;;;;;;;3.20;2.40;;;31.30;38.20;;;;;;5136896;27;20067;-70
2023/06/25 10:42:32;;;;;;;3.13;2.25;;;31.20;38.40;;;;;;5135528;27;20024;-69
2023/06/25 10:45:01;;;;;;;3.00;2.45;;;31.20;38.40;;;;;;5136323;27;20030;-70
2023/06/25 10:47:28;;;;;;;20.83;17.77;;;31.20;38.60;;;;;;5122777;28;20023;-69
2023/06/25 10:49:53;;;;;;;7.45;5.65;;;31.30;38.80;;;;;;5141532;27;20413;-69
2023/06/25 10:52:19;;;;;;;6.95;4.28;;;31.40;39.20;;;;;;5141228;27;20468;-69
2023/06/25 10:54:45;;;;;;;4.88;3.47;;;31.60;39.40;;;;;;5141435;27;20027;-68
2023/06/25 10:57:15;;;;;;;5.30;4.45;;;31.80;39.50;;;;;;5141755;27;20062;-69
2023/06/25 10:59:45;;;;;;;6.57;5.10;;;31.90;39.30;;;;;;5136117;27;20087;-69
2023/06/25 11:02:21;;;;;;;6.03;4.28;;;31.90;38.90;;;;;;5136125;27;20034;-69
2023/06/25 11:04:52;;;;;;;4.97;3.45;;;31.80;38.70;;;;;;5136723;27;20020;-69
2023/06/25 11:07:19;;;;;;;5.20;3.00;;;31.70;38.50;;;;;;5136235;27;20058;-69
2023/06/25 11:09:50;;;;;;;4.30;2.80;;;31.70;38.60;;;;;;5135867;27;20023;-70
2023/06/25 11:12:17;;;;;;;3.33;2.50;;;31.60;38.80;;;;;;5135813;27;20164;-69
2023/06/25 11:14:44;;;;;;;5.13;2.45;;;31.60;38.90;;;;;;5135846;27;20030;-70
2023/06/25 11:17:14;;;;;;;3.60;2.53;;;31.60;39.00;;;;;;5136174;27;20355;-69
2023/06/25 11:19:39;;;;;;;3.65;2.70;;;31.70;38.90;;;;;;5135962;27;20015;-68
2023/06/25 11:22:07;;;;;;;3.83;2.55;;;31.70;39.00;;;;;;5135771;28;20030;-68
2023/06/25 11:24:37;;;;;;;2.72;2.40;;;31.70;39.20;;;;;;5135543;27;20023;-67
2023/06/25 11:27:03;;;;;;;3.80;2.50;;;31.80;39.30;;;;;;5134908;27;20098;-67
2023/06/25 11:29:39;;;;;;;3.33;2.25;;;31.80;38.90;;;;;;5134748;28;20459;-68
2023/06/25 11:32:08;;;;;;;2.72;2.10;;;31.70;38.70;;;;;;5134494;28;20027;-67
2023/06/25 11:34:43;;;;;;;4.00;2.30;;;31.70;38.80;;;;;;5135545;27;20060;-68
2023/06/25 11:37:14;;;;;;;2.53;2.25;;;31.80;39.00;;;;;;5136156;27;20344;-69
2023/06/25 11:39:51;;;;;;;3.10;2.45;;;31.70;38.80;;;;;;5135856;27;20019;-69
2023/06/25 11:42:21;;;;;;;2.55;2.35;;;31.70;38.60;;;;;;5131914;28;20023;-68
2023/06/25 11:44:59;;;;;;;3.00;2.40;;;31.70;38.60;;;;;;5136105;27;20047;-68
2023/06/25 11:47:25;;;;;;;3.05;2.30;;;31.70;38.60;;;;;;5135990;27;20033;-69
2023/06/25 11:49:58;;;;;;;2.45;2.22;;;31.70;38.80;;;;;;5135892;27;20102;-69
2023/06/25 11:52:25;;;;;;;2.50;2.10;;;31.70;38.90;;;;;;5136163;27;20038;-69
2023/06/25 11:54:51;;;;;;;3.25;2.35;;;31.70;39.10;;;;;;5134820;28;20016;-68
2023/06/25 11:57:18;;;;;;;3.03;2.25;;;31.80;39.40;;;;;;5133922;27;20031;-69
2023/06/25 11:59:44;;;;;;;3.95;2.45;;;31.80;39.60;;;;;;5134844;27;20140;-68
2023/06/25 12:02:11;;;;;;;3.22;2.40;;;31.90;39.40;;;;;;5137760;27;20440;-68
2023/06/25 12:04:38;;;;;;;4.22;2.42;;;31.90;39.10;;;;;;5137679;27;20065;-68
2023/06/25 12:07:04;;;;;;;3.53;2.45;;;31.90;39.30;;;;;;5137563;27;20102;-67
2023/06/25 12:09:29;;;;;;;4.32;2.30;;;31.80;39.40;;;;;;5137462;27;20061;-69
2023/06/25 12:11:56;;;;;;;3.80;2.75;;;31.90;39.90;;;;;;5137424;27;20089;-67
2023/06/25 12:14:23;;;;;;;3.45;2.30;;;31.90;39.80;;;;;;5138890;27;20073;-68
2023/06/25 12:16:50;;;;;;;3.00;2.00;;;31.90;40.00;;;;;;5136174;27;20019;-66
2023/06/25 12:19:17;;;;;;;4.20;2.35;;;31.90;40.00;;;;;;5131674;27;20011;-67
2023/06/25 12:21:42;;;;;;;2.65;2.28;;;32.00;39.90;;;;;;5137186;27;20072;-67
2023/06/25 12:24:08;;;;;;;3.42;2.40;;;32.00;39.80;;;;;;5138537;27;20076;-68
2023/06/25 12:26:34;;;;;;;4.32;2.50;;;32.00;39.60;;;;;;5137631;27;20031;-68
2023/06/25 12:29:01;;;;;;;2.50;1.80;;;31.90;39.40;;;;;;5138765;27;20023;-67
2023/06/25 12:31:27;;;;;;;2.95;2.10;;;31.80;39.30;;;;;;5138784;27;20101;-68
2023/06/25 12:33:54;;;;;;;4.15;2.50;;;31.80;39.50;;;;;;5136170;27;20076;-66
2023/06/25 12:36:20;;;;;;;3.17;2.50;;;31.80;39.50;;;;;;5137010;27;20067;-68
2023/06/25 12:38:46;;;;;;;5.13;2.50;;;31.80;39.50;;;;;;5136699;27;20065;-69
2023/06/25 12:41:14;;;;;;;5.38;2.60;;;31.80;39.40;;;;;;5134189;27;20072;-67
2023/06/25 12:43:39;;;;;;;5.32;2.75;;;31.60;39.30;;;;;;5137001;27;20420;-66
2023/06/25 12:46:05;;;;;;;4.45;2.60;;;31.40;39.50;;;;;;5135185;27;20062;-66
2023/06/25 12:48:32;;;;;;;3.10;2.40;;;31.30;39.60;;;;;;5138910;27;20026;-66
2023/06/25 12:50:58;;;;;;;2.88;2.30;;;31.20;39.80;;;;;;5137216;27;20027;-67